createdAt,value
2019-04-24T00:00:11.625Z,17.8
2019-04-24T00:00:39.405Z,17.81
2019-04-24T00:01:18.982Z,17.74
2019-04-24T00:02:14.579Z,17.81
2019-04-24T00:02:53.601Z,17.71
2019-04-24T00:03:21.005Z,17.8
2019-04-24T00:04:39.992Z,17.77
2019-04-24T00:05:38.323Z,17.74
2019-04-24T00:06:07.626Z,17.66
2019-04-24T00:06:44.070Z,17.71
2019-04-24T00:07:12.220Z,17.58
2019-04-24T00:08:08.067Z,17.53
2019-04-24T00:08:52.702Z,17.51
2019-04-24T00:09:21.663Z,17.63
2019-04-24T00:10:01.837Z,17.7
2019-04-24T00:10:47.555Z,17.57
2019-04-24T00:12:53.314Z,17.51
2019-04-24T00:13:28.261Z,17.58
2019-04-24T00:14:49.470Z,17.55
2019-04-24T00:16:08.276Z,17.53
2019-04-24T00:16:49.151Z,17.51
2019-04-24T00:17:20.365Z,17.49
2019-04-24T00:20:54.752Z,17.49
2019-04-24T00:21:26.512Z,17.58
2019-04-24T00:22:17.969Z,17.58
2019-04-24T00:23:02.076Z,17.57
2019-04-24T00:23:34.377Z,17.53
2019-04-24T00:25:03.038Z,17.53
2019-04-24T00:25:37.841Z,17.6
2019-04-24T00:26:14.270Z,17.62
2019-04-24T00:26:58.986Z,17.62
2019-04-24T00:27:29.091Z,17.63
2019-04-24T00:28:15.841Z,17.74
2019-04-24T00:29:01.987Z,17.74
2019-04-24T00:29:47.366Z,17.7
2019-04-24T00:31:24.087Z,17.8
2019-04-24T00:32:15.014Z,17.74
2019-04-24T00:33:40.049Z,17.76
2019-04-24T00:34:20.649Z,17.84
2019-04-24T00:35:01.064Z,17.81
2019-04-24T00:35:35.864Z,17.89
2019-04-24T00:39:05.903Z,18.01
2019-04-24T00:39:38.179Z,18.01
2019-04-24T00:40:15.530Z,17.98
2019-04-24T00:41:12.689Z,18.07
2019-04-24T00:41:58.136Z,18.01
2019-04-24T00:42:20.769Z,18.02
2019-04-24T00:43:18.879Z,18.04
2019-04-24T00:43:54.674Z,18.04
2019-04-24T00:44:18.576Z,18.02
2019-04-24T00:45:06.689Z,18.02
2019-04-24T00:45:48.109Z,18.01
2019-04-24T00:46:35.487Z,18.01
2019-04-24T00:47:07.041Z,18.02
2019-04-24T00:47:47.319Z,17.96
2019-04-24T00:49:12.795Z,17.92
2019-04-24T00:50:23.041Z,17.91
2019-04-24T00:51:24.357Z,17.84
2019-04-24T00:52:19.404Z,17.84
2019-04-24T00:53:35.878Z,17.81
2019-04-24T00:53:51.572Z,17.83
2019-04-24T00:54:37.387Z,17.89
2019-04-24T00:55:03.459Z,17.81
2019-04-24T00:56:03.260Z,17.76
2019-04-24T00:57:16.099Z,17.74
2019-04-24T00:58:33.740Z,17.76
2019-04-24T00:59:23.841Z,17.68
2019-04-24T00:59:45.661Z,17.74
2019-04-24T01:00:40.459Z,17.73
2019-04-24T01:01:24.991Z,17.73
2019-04-24T01:03:18.438Z,17.7
2019-04-24T01:05:20.998Z,17.74
2019-04-24T01:06:46.148Z,17.79
2019-04-24T01:07:27.620Z,17.83
2019-04-24T01:08:27.493Z,17.79
2019-04-24T01:09:22.107Z,17.8
2019-04-24T01:10:11.348Z,17.81
2019-04-24T01:10:30.493Z,17.81
2019-04-24T01:12:06.164Z,17.73
2019-04-24T01:12:52.364Z,17.7
2019-04-24T01:14:08.718Z,17.73
2019-04-24T01:14:30.443Z,17.73
2019-04-24T01:16:15.484Z,17.65
2019-04-24T01:17:05.984Z,17.6
2019-04-24T01:17:55.509Z,17.68
2019-04-24T01:18:39.980Z,17.62
2019-04-24T01:19:27.030Z,17.71
2019-04-24T01:20:20.474Z,17.7
2019-04-24T01:20:50.959Z,17.62
2019-04-24T01:22:17.764Z,17.62
2019-04-24T01:22:51.722Z,17.57
2019-04-24T01:23:23.818Z,17.63
2019-04-24T01:24:10.646Z,17.6
2019-04-24T01:24:58.883Z,17.63
2019-04-24T01:25:44.484Z,17.62
2019-04-24T01:26:07.926Z,17.65
2019-04-24T01:27:34.583Z,17.6
2019-04-24T01:29:31.750Z,17.7
2019-04-24T01:30:37.652Z,17.65
2019-04-24T01:32:13.819Z,17.6
2019-04-24T01:33:04.406Z,17.7
2019-04-24T01:33:33.212Z,17.58
2019-04-24T01:34:15.865Z,17.73
2019-04-24T01:35:02.530Z,17.71
2019-04-24T01:35:39.848Z,17.68
2019-04-24T01:36:57.051Z,17.74
2019-04-24T01:37:36.366Z,17.83
2019-04-24T01:38:19.117Z,17.65
2019-04-24T01:40:11.600Z,17.62
2019-04-24T01:40:58.560Z,17.58
2019-04-24T01:41:32.796Z,17.55
2019-04-24T01:43:41.636Z,17.57
2019-04-24T01:44:17.949Z,17.58
2019-04-24T01:45:04.549Z,17.55
2019-04-24T01:47:06.214Z,17.57
2019-04-24T01:48:24.538Z,17.6
2019-04-24T01:50:29.186Z,17.58
2019-04-24T01:51:05.191Z,17.55
2019-04-24T01:52:32.836Z,17.54
2019-04-24T01:53:01.209Z,17.49
2019-04-24T01:54:02.442Z,17.54
2019-04-24T01:54:29.745Z,17.51
2019-04-24T01:55:02.109Z,17.49
2019-04-24T01:55:40.226Z,17.53
2019-04-24T01:57:10.624Z,17.53
2019-04-24T01:58:24.077Z,17.53
2019-04-24T01:59:09.696Z,17.54
2019-04-24T01:59:46.692Z,17.53
2019-04-24T02:00:43.157Z,17.49
2019-04-24T02:01:48.435Z,17.53
2019-04-24T02:03:19.331Z,17.38
2019-04-24T02:03:49.328Z,17.36
2019-04-24T02:04:38.441Z,17.28
2019-04-24T02:05:15.907Z,17.28
2019-04-24T02:05:59.969Z,17.17
2019-04-24T02:06:28.567Z,17.28
2019-04-24T02:08:10.990Z,17.2
2019-04-24T02:08:32.353Z,17.12
2019-04-24T02:09:32.109Z,17.14
2019-04-24T02:11:34.831Z,17.07
2019-04-24T02:12:04.467Z,16.99
2019-04-24T02:12:56.853Z,16.96
2019-04-24T02:13:26.898Z,16.91
2019-04-24T02:14:13.162Z,16.81
2019-04-24T02:14:53.090Z,16.77
2019-04-24T02:15:32.119Z,16.65
2019-04-24T02:16:07.822Z,16.55
2019-04-24T02:16:50.778Z,16.52
2019-04-24T02:17:34.678Z,16.52
2019-04-24T02:18:42.082Z,16.55
2019-04-24T02:19:30.153Z,16.54
2019-04-24T02:20:30.840Z,16.44
2019-04-24T02:20:46.461Z,16.47
2019-04-24T02:21:45.392Z,16.42
2019-04-24T02:22:23.592Z,16.42
2019-04-24T02:23:06.372Z,16.47
2019-04-24T02:23:39.308Z,16.4
2019-04-24T02:24:21.405Z,16.45
2019-04-24T02:26:53.577Z,16.42
2019-04-24T02:27:43.259Z,16.42
2019-04-24T02:28:27.691Z,16.44
2019-04-24T02:29:35.418Z,16.51
2019-04-24T02:30:43.019Z,16.52
2019-04-24T02:31:15.290Z,16.5
2019-04-24T02:31:46.551Z,16.48
2019-04-24T02:33:30.286Z,16.5
2019-04-24T02:33:59.577Z,16.52
2019-04-24T02:34:48.380Z,16.54
2019-04-24T02:35:26.347Z,16.48
2019-04-24T02:37:23.064Z,16.48
2019-04-24T02:38:51.980Z,16.47
2019-04-24T02:42:09.432Z,16.54
2019-04-24T02:43:29.194Z,16.57
2019-04-24T02:44:20.301Z,16.52
2019-04-24T02:45:02.063Z,16.59
2019-04-24T02:45:44.898Z,16.55
2019-04-24T02:47:40.601Z,16.55
2019-04-24T02:49:42.456Z,16.52
2019-04-24T02:50:47.897Z,16.54
2019-04-24T02:52:26.919Z,16.57
2019-04-24T02:53:40.075Z,16.57
2019-04-24T02:54:33.414Z,16.57
2019-04-24T02:55:01.649Z,16.5
2019-04-24T02:55:39.950Z,16.51
2019-04-24T02:56:25.763Z,16.59
2019-04-24T02:57:08.140Z,16.52
2019-04-24T02:58:25.972Z,16.52
2019-04-24T02:59:03.353Z,16.59
2019-04-24T03:01:42.557Z,16.55
2019-04-24T03:02:31.766Z,16.55
2019-04-24T03:03:40.533Z,16.51
2019-04-24T03:04:52.060Z,16.52
2019-04-24T03:06:27.554Z,16.62
2019-04-24T03:07:17.660Z,16.62
2019-04-24T03:11:11.789Z,16.57
2019-04-24T03:12:07.282Z,16.59
2019-04-24T03:13:00.976Z,16.57
2019-04-24T03:14:39.492Z,16.67
2019-04-24T03:15:47.527Z,16.65
2019-04-24T03:16:47.887Z,16.67
2019-04-24T03:17:21.987Z,16.69
2019-04-24T03:17:41.391Z,16.7
2019-04-24T03:18:35.144Z,16.67
2019-04-24T03:19:37.029Z,16.7
2019-04-24T03:20:56.950Z,16.82
2019-04-24T03:21:27.878Z,16.81
2019-04-24T03:23:31.851Z,16.81
2019-04-24T03:24:00.455Z,16.82
2019-04-24T03:24:45.327Z,16.81
2019-04-24T03:25:38.501Z,16.88
2019-04-24T03:28:49.661Z,16.8
2019-04-24T03:30:20.269Z,16.85
2019-04-24T03:32:36.405Z,16.72
2019-04-24T03:33:47.863Z,16.73
2019-04-24T03:35:27.454Z,16.75
2019-04-24T03:36:08.767Z,16.67
2019-04-24T03:37:12.658Z,16.65
2019-04-24T03:38:01.619Z,16.63
2019-04-24T03:40:03.903Z,16.65
2019-04-24T03:40:48.077Z,16.62
2019-04-24T03:44:18.686Z,16.48
2019-04-24T03:45:23.449Z,16.54
2019-04-24T03:46:26.820Z,16.45
2019-04-24T03:47:01.049Z,16.45
2019-04-24T03:49:30.773Z,16.4
2019-04-24T03:50:12.964Z,16.41
2019-04-24T03:52:27.220Z,16.4
2019-04-24T03:56:04.784Z,16.36
2019-04-24T03:56:40.697Z,16.47
2019-04-24T03:57:43.890Z,16.42
2019-04-24T03:58:50.576Z,16.42
2019-04-24T03:59:23.704Z,16.47
2019-04-24T04:01:26.685Z,16.37
2019-04-24T04:03:02.134Z,16.34
2019-04-24T04:04:50.632Z,16.36
2019-04-24T04:06:17.024Z,16.36
2019-04-24T04:07:28.945Z,16.47
2019-04-24T04:08:42.048Z,16.37
2019-04-24T04:09:43.626Z,16.4
2019-04-24T04:10:51.068Z,16.45
2019-04-24T04:11:44.559Z,16.47
2019-04-24T04:13:25.990Z,16.5
2019-04-24T04:14:31.252Z,16.48
2019-04-24T04:15:07.464Z,16.51
2019-04-24T04:15:49.890Z,16.55
2019-04-24T04:17:05.166Z,16.55
2019-04-24T04:17:57.414Z,16.73
2019-04-24T04:19:02.202Z,16.73
2019-04-24T04:20:33.852Z,16.66
2019-04-24T04:21:53.855Z,16.78
2019-04-24T04:25:08.302Z,17.02
2019-04-24T04:27:12.752Z,16.96
2019-04-24T04:27:52.571Z,17.02
2019-04-24T05:09:49.424Z,15.53
2019-04-24T05:10:20.885Z,15.44
2019-04-24T05:11:18.015Z,15.37
2019-04-24T05:12:14.922Z,15.52
2019-04-24T05:12:55.848Z,15.53
2019-04-24T05:13:50.183Z,15.52
2019-04-24T05:14:42.044Z,15.53
2019-04-24T05:16:03.325Z,15.66
2019-04-24T05:16:45.861Z,15.66
2019-04-24T05:17:07.015Z,15.76
2019-04-24T05:18:53.387Z,15.81
2019-04-24T05:19:47.477Z,15.84
2019-04-24T05:21:32.984Z,16.04
2019-04-24T05:22:13.852Z,16.04
2019-04-24T05:22:31.833Z,16.13
2019-04-24T05:24:16.175Z,16.3
2019-04-24T05:24:38.867Z,16.29
2019-04-24T05:25:35.692Z,16.33
2019-04-24T05:28:01.360Z,16.4
2019-04-24T05:28:52.946Z,16.44
2019-04-24T05:29:38.769Z,16.51
2019-04-24T05:30:41.449Z,16.57
2019-04-24T05:31:46.244Z,16.67
2019-04-24T05:32:10.987Z,16.72
2019-04-24T05:33:06.693Z,16.81
2019-04-24T05:33:47.745Z,16.99
2019-04-24T05:34:39.426Z,17.18
2019-04-24T05:35:01.721Z,17.14
2019-04-24T05:36:19.534Z,17.27
2019-04-24T05:36:57.535Z,17.27
2019-04-24T05:37:46.836Z,17.39
2019-04-24T05:38:18.006Z,17.36
2019-04-24T05:39:17.336Z,17.32
2019-04-24T05:39:44.506Z,17.25
2019-04-24T05:40:28.914Z,17.27
2019-04-24T05:40:52.725Z,17.27
2019-04-24T05:41:44.632Z,17.27
2019-04-24T05:42:46.481Z,17.25
2019-04-24T05:43:11.082Z,17.28
2019-04-24T05:44:30.797Z,17.15
2019-04-24T05:45:22.719Z,17.17
2019-04-24T05:46:03.955Z,17.15
2019-04-24T05:46:38.707Z,17.17
2019-04-24T05:47:30.489Z,17.12
2019-04-24T05:47:55.723Z,17.17
2019-04-24T05:49:22.268Z,17.22
2019-04-24T05:50:57.182Z,17.24
2019-04-24T05:51:59.222Z,17.28
2019-04-24T05:53:02.552Z,17.36
2019-04-24T05:53:37.718Z,17.39
2019-04-24T05:54:02.284Z,17.4
2019-04-24T05:55:09.451Z,17.58
2019-04-24T05:56:16.220Z,17.8
2019-04-24T05:57:09.272Z,17.84
2019-04-24T05:57:56.938Z,18.01
2019-04-24T05:58:17.448Z,18.13
2019-04-24T05:59:05.263Z,18.31
2019-04-24T06:00:27.395Z,18.29
2019-04-24T06:02:18.685Z,18.35
2019-04-24T06:02:42.880Z,18.35
2019-04-24T06:03:09.464Z,18.32
2019-04-24T06:06:24.037Z,18.21
2019-04-24T06:06:59.701Z,18.26
2019-04-24T06:09:05.139Z,18.31
2019-04-24T06:09:42.709Z,18.29
2019-04-24T06:12:35.440Z,18.16
2019-04-24T06:13:44.457Z,18.25
2019-04-24T06:15:18.405Z,18.32
2019-04-24T06:15:58.487Z,18.42
2019-04-24T06:16:51.681Z,18.31
2019-04-24T06:18:08.697Z,18.28
2019-04-24T06:18:49.138Z,18.36
2019-04-24T06:20:13.724Z,18.31
2019-04-24T06:20:57.500Z,18.32
2019-04-24T06:21:27.764Z,18.34
2019-04-24T06:22:07.798Z,18.26
2019-04-24T06:22:51.161Z,18.36
2019-04-24T06:23:48.453Z,18.16
2019-04-24T06:24:20.826Z,18.17
2019-04-24T06:25:19.541Z,18.11
2019-04-24T06:25:56.099Z,17.94
2019-04-24T06:27:45.413Z,18.11
2019-04-24T06:28:50.411Z,18.2
2019-04-24T06:30:43.290Z,18.35
2019-04-24T06:31:58.286Z,18.34
2019-04-24T06:32:13.749Z,18.38
2019-04-24T06:32:40.104Z,18.34
2019-04-24T06:33:25.099Z,18.41
2019-04-24T06:35:03.758Z,18.49
2019-04-24T06:36:05.827Z,18.57
2019-04-24T06:37:31.214Z,18.65
2019-04-24T06:38:04.769Z,18.74
2019-04-24T06:39:02.931Z,18.72
2019-04-24T06:40:18.518Z,18.86
2019-04-24T06:40:58.393Z,18.78
2019-04-24T06:42:10.413Z,18.9
2019-04-24T06:43:07.381Z,18.78
2019-04-24T06:44:26.900Z,18.76
2019-04-24T06:45:11.686Z,18.79
2019-04-24T06:47:22.156Z,18.71
2019-04-24T06:48:19.018Z,18.74
2019-04-24T06:49:28.053Z,18.72
2019-04-24T06:52:01.254Z,18.6
2019-04-24T06:52:32.758Z,18.59
2019-04-24T06:53:43.596Z,18.62
2019-04-24T06:54:34.547Z,18.6
2019-04-24T06:55:23.124Z,18.6
2019-04-24T06:55:59.417Z,18.57
2019-04-24T06:58:09.558Z,18.5
2019-04-24T06:58:52.485Z,18.38
2019-04-24T06:59:42.783Z,18.31
2019-04-24T07:00:27.811Z,18.31
2019-04-24T07:01:37.793Z,18.2
2019-04-24T07:05:54.313Z,18.32
2019-04-24T07:06:48.700Z,18.28
2019-04-24T07:07:25.090Z,18.47
2019-04-24T07:07:44.282Z,18.41
2019-04-24T07:08:36.709Z,18.49
2019-04-24T07:10:03.162Z,18.72
2019-04-24T07:10:52.987Z,18.91
2019-04-24T07:12:14.213Z,19.07
2019-04-24T07:12:55.619Z,19.17
2019-04-24T07:13:53.643Z,19.3
2019-04-24T07:14:51.263Z,19.47
2019-04-24T07:15:46.503Z,19.49
2019-04-24T07:16:37.037Z,19.52
2019-04-24T07:17:48.164Z,19.49
2019-04-24T07:18:56.465Z,19.38
2019-04-24T07:19:48.255Z,19.4
2019-04-24T07:21:50.243Z,19.42
2019-04-24T07:22:25.400Z,19.47
2019-04-24T07:23:53.051Z,19.32
2019-04-24T07:24:51.629Z,19.32
2019-04-24T07:25:17.080Z,19.25
2019-04-24T07:26:11.922Z,19.39
2019-04-24T07:26:34.083Z,19.34
2019-04-24T07:29:20.607Z,19.17
2019-04-24T07:30:45.250Z,19.24
2019-04-24T07:31:40.550Z,19.24
2019-04-24T07:32:02.520Z,19.23
2019-04-24T07:32:57.847Z,19.38
2019-04-24T07:33:27.768Z,19.27
2019-04-24T07:34:21.364Z,19.46
2019-04-24T07:34:48.103Z,19.5
2019-04-24T07:35:52.475Z,19.43
2019-04-24T07:36:12.790Z,19.47
2019-04-24T07:37:44.639Z,19.49
2019-04-24T07:38:14.487Z,19.47
2019-04-24T07:40:11.227Z,19.35
2019-04-24T07:41:15.125Z,19.25
2019-04-24T07:42:24.071Z,19.1
2019-04-24T07:43:12.477Z,19.17
2019-04-24T07:43:46.566Z,19.25
2019-04-24T07:44:28.892Z,19.43
2019-04-24T07:45:04.276Z,19.57
2019-04-24T07:46:09.510Z,19.58
2019-04-24T07:46:33.411Z,19.6
2019-04-24T07:47:44.197Z,19.76
2019-04-24T07:49:16.924Z,19.89
2019-04-24T07:50:51.009Z,19.95
2019-04-24T07:51:23.916Z,19.97
2019-04-24T07:53:25.909Z,20.27
2019-04-24T07:54:51.332Z,20.41
2019-04-24T07:55:32.569Z,20.48
2019-04-24T07:57:00.687Z,20.76
2019-04-24T07:57:24.715Z,20.97
2019-04-24T07:58:13.498Z,21.11
2019-04-24T07:59:57.237Z,21.22
2019-04-24T08:00:18.524Z,21.28
2019-04-24T08:00:56.981Z,21.46
2019-04-24T08:01:53.625Z,21.58
2019-04-24T08:03:51.091Z,21.73
2019-04-24T08:05:13.123Z,21.61
2019-04-24T08:05:40.678Z,21.63
2019-04-24T08:08:43.796Z,21.71
2019-04-24T08:09:19.026Z,21.81
2019-04-24T08:10:14.177Z,22.01
2019-04-24T08:10:41.191Z,22.08
2019-04-24T08:11:06.589Z,22.21
2019-04-24T08:11:58.675Z,22.19
2019-04-24T08:12:34.592Z,22.08
2019-04-24T08:13:14.835Z,22.23
2019-04-24T08:14:00.302Z,22.35
2019-04-24T08:15:02.694Z,22.51
2019-04-24T08:15:31.788Z,22.59
2019-04-24T08:15:59.006Z,22.69
2019-04-24T08:16:46.884Z,22.72
2019-04-24T08:17:38.755Z,22.78
2019-04-24T08:18:04.889Z,22.86
2019-04-24T08:18:37.965Z,22.93
2019-04-24T08:20:52.882Z,23.12
2019-04-24T08:21:29.819Z,23.16
2019-04-24T08:22:10.649Z,23.23
2019-04-24T08:22:54.673Z,23.31
2019-04-24T08:24:24.646Z,23.44
2019-04-24T08:25:05.130Z,23.57
2019-04-24T08:26:08.488Z,23.67
2019-04-24T08:27:06.974Z,23.79
2019-04-24T08:27:48.261Z,23.84
2019-04-24T08:28:38.890Z,23.79
2019-04-24T08:29:05.967Z,23.84
2019-04-24T08:30:23.787Z,24.02
2019-04-24T08:31:12.416Z,23.99
2019-04-24T08:31:59.576Z,23.93
2019-04-24T08:32:36.815Z,23.97
2019-04-24T08:33:17.990Z,24.09
2019-04-24T08:34:04.382Z,24.06
2019-04-24T08:35:16.006Z,24.21
2019-04-24T08:36:35.398Z,24.34
2019-04-24T08:37:15.070Z,24.29
2019-04-24T08:38:58.595Z,24.63
2019-04-24T08:40:46.134Z,24.82
2019-04-24T08:41:29.128Z,24.9
2019-04-24T08:42:16.803Z,24.98
2019-04-24T08:44:24.920Z,25.19
2019-04-24T08:45:02.177Z,25.08
2019-04-24T08:48:09.534Z,25.08
2019-04-24T08:49:02.136Z,24.83
2019-04-24T08:49:21.823Z,24.79
2019-04-24T08:50:28.623Z,24.8
2019-04-24T08:51:12.659Z,24.8
2019-04-24T08:51:45.522Z,24.84
2019-04-24T08:52:31.954Z,24.92
2019-04-24T08:53:41.277Z,24.84
2019-04-24T08:54:06.397Z,24.83
2019-04-24T08:55:04.720Z,24.79
2019-04-24T08:55:46.536Z,24.84
2019-04-24T08:56:16.154Z,24.86
2019-04-24T08:56:59.084Z,24.94
2019-04-24T08:57:51.200Z,25.05
2019-04-24T08:59:07.184Z,25.26
2019-04-24T09:00:41.076Z,25.26
2019-04-24T09:01:05.835Z,25.22
2019-04-24T09:01:48.398Z,25.23
2019-04-24T09:02:26.547Z,25.23
2019-04-24T09:05:05.733Z,25.41
2019-04-24T09:06:51.708Z,25.45
2019-04-24T09:07:36.487Z,25.45
2019-04-24T09:08:10.480Z,25.53
2019-04-24T09:08:51.590Z,25.49
2019-04-24T09:09:25.809Z,25.59
2019-04-24T09:10:42.514Z,25.63
2019-04-24T09:11:00.216Z,25.53
2019-04-24T09:12:15.170Z,25.69
2019-04-24T09:13:15.264Z,25.83
2019-04-24T09:13:45.516Z,25.98
2019-04-24T09:15:15.377Z,25.81
2019-04-24T09:16:22.818Z,25.85
2019-04-24T09:18:02.953Z,25.64
2019-04-24T09:18:49.615Z,25.71
2019-04-24T09:20:14.653Z,25.76
2019-04-24T09:20:55.473Z,25.83
2019-04-24T09:21:30.428Z,25.86
2019-04-24T09:22:03.192Z,25.85
2019-04-24T09:22:48.417Z,25.82
2019-04-24T09:25:09.348Z,25.83
2019-04-24T09:27:09.926Z,25.74
2019-04-24T09:27:48.540Z,25.71
2019-04-24T09:28:47.981Z,25.74
2019-04-24T09:31:16.335Z,25.64
2019-04-24T09:32:47.854Z,25.63
2019-04-24T09:33:40.032Z,25.61
2019-04-24T09:35:46.107Z,25.93
2019-04-24T09:38:37.229Z,26.39
2019-04-24T09:39:41.901Z,26.5
2019-04-24T09:41:15.877Z,26.36
2019-04-24T09:43:19.505Z,26.17
2019-04-24T09:43:55.272Z,26.08
2019-04-24T09:44:34.761Z,25.86
2019-04-24T09:45:14.578Z,25.81
2019-04-24T09:45:55.478Z,25.85
2019-04-24T09:47:21.487Z,25.69
2019-04-24T09:48:16.274Z,25.69
2019-04-24T09:49:11.642Z,25.57
2019-04-24T09:50:07.766Z,25.48
2019-04-24T09:50:50.783Z,25.56
2019-04-24T09:51:36.691Z,25.71
2019-04-24T09:52:13.442Z,25.57
2019-04-24T09:53:19.696Z,25.63
2019-04-24T09:54:25.925Z,25.86
2019-04-24T09:55:08.236Z,25.9
2019-04-24T09:55:49.230Z,25.9
2019-04-24T09:56:37.591Z,25.83
2019-04-24T09:57:12.649Z,25.81
2019-04-24T10:00:04.638Z,26.2
2019-04-24T10:02:02.972Z,26.36
2019-04-24T10:03:01.725Z,26.56
2019-04-24T10:08:10.991Z,26.66
2019-04-24T10:09:31.992Z,26.91
2019-04-24T10:10:15.602Z,26.78
2019-04-24T10:10:53.946Z,26.86
2019-04-24T10:11:49.878Z,26.86
2019-04-24T10:12:34.631Z,26.98
2019-04-24T10:12:54.037Z,27.02
2019-04-24T10:13:41.258Z,27.2
2019-04-24T10:14:54.841Z,27.23
2019-04-24T10:15:51.539Z,27.23
2019-04-24T10:16:35.520Z,27.35
2019-04-24T10:17:48.788Z,27.4
2019-04-24T10:18:43.354Z,27.34
2019-04-24T10:20:23.718Z,27.06
2019-04-24T10:20:59.531Z,27.12
2019-04-24T10:21:48.317Z,27.15
2019-04-24T10:22:38.781Z,27.35
2019-04-24T10:23:24.024Z,27.33
2019-04-24T10:23:54.640Z,27.34
2019-04-24T10:24:39.018Z,27.39
2019-04-24T10:25:51.677Z,27.34
2019-04-24T10:26:33.126Z,27.28
2019-04-24T10:27:20.405Z,27.15
2019-04-24T10:28:01.888Z,27.25
2019-04-24T10:28:55.485Z,27.24
2019-04-24T11:13:21.277Z,27.83
2019-04-24T11:14:11.558Z,27.91
2019-04-24T11:14:44.971Z,27.78
2019-04-24T11:17:13.410Z,27.86
2019-04-24T11:17:34.252Z,27.81
2019-04-24T11:18:19.670Z,27.87
2019-04-24T11:19:33.611Z,27.98
2019-04-24T11:20:33.016Z,28.09
2019-04-24T11:21:06.839Z,28.21
2019-04-24T11:21:49.253Z,28.33
2019-04-24T11:22:31.806Z,28.4
2019-04-24T11:23:04.995Z,28.55
2019-04-24T11:23:42.119Z,28.85
2019-04-24T11:24:43.581Z,29.02
2019-04-24T11:25:56.411Z,29.36
2019-04-24T11:26:33.705Z,29.02
2019-04-24T11:27:25.372Z,28.79
2019-04-24T11:28:11.263Z,28.45
2019-04-24T11:29:41.409Z,28.21
2019-04-24T11:30:12.355Z,28.11
2019-04-24T11:31:17.127Z,28.06
2019-04-24T11:35:43.329Z,27.61
2019-04-24T11:36:44.320Z,27.66
2019-04-24T11:38:39.955Z,27.93
2019-04-24T11:39:15.747Z,28.01
2019-04-24T11:40:18.659Z,27.99
2019-04-24T11:41:22.666Z,28.21
2019-04-24T11:41:56.484Z,28.27
2019-04-24T11:42:43.119Z,28.3
2019-04-24T11:43:19.953Z,28.38
2019-04-24T11:44:51.949Z,28.23
2019-04-24T11:45:41.046Z,28.28
2019-04-24T11:45:57.969Z,28.24
2019-04-24T11:48:10.075Z,28.8
2019-04-24T11:49:53.293Z,29.02
2019-04-24T11:50:58.617Z,29.21
2019-04-24T11:51:16.574Z,29.3
2019-04-24T11:52:00.588Z,29.6
2019-04-24T11:52:27.680Z,29.71
2019-04-24T11:53:43.027Z,29.71
2019-04-24T11:54:33.659Z,29.67
2019-04-24T11:55:12.667Z,29.78
2019-04-24T11:55:47.494Z,29.91
2019-04-24T11:56:36.745Z,30.1
2019-04-24T11:58:32.883Z,29.82
2019-04-24T11:58:46.391Z,29.58
2019-04-24T11:59:35.444Z,29.33
2019-04-24T12:00:22.193Z,29.3
2019-04-24T12:01:01.652Z,29.17
2019-04-24T12:02:32.047Z,29.05
2019-04-24T12:03:01.430Z,29
2019-04-24T12:03:56.045Z,29.15
2019-04-24T12:04:42.595Z,29.35
2019-04-24T12:05:22.256Z,29.44
2019-04-24T12:06:02.916Z,29.55
2019-04-24T12:06:46.169Z,29.62
2019-04-24T12:07:15.172Z,29.58
2019-04-24T12:08:11.815Z,29.55
2019-04-24T12:09:13.389Z,29.32
2019-04-24T12:10:09.955Z,29.35
2019-04-24T12:10:47.583Z,29.2
2019-04-24T12:11:32.073Z,29.03
2019-04-24T12:12:23.524Z,28.94
2019-04-24T12:12:55.168Z,29.05
2019-04-24T12:13:43.745Z,28.98
2019-04-24T12:14:05.414Z,29.02
2019-04-24T12:14:51.883Z,28.98
2019-04-24T12:15:38.771Z,29.17
2019-04-24T12:16:08.486Z,29.11
2019-04-24T12:16:49.399Z,29
2019-04-24T12:17:40.802Z,28.97
2019-04-24T12:18:14.511Z,29.03
2019-04-24T12:19:56.327Z,28.7
2019-04-24T12:21:15.712Z,28.76
2019-04-24T12:22:57.146Z,28.6
2019-04-24T12:25:00.786Z,28.54
2019-04-24T12:25:53.711Z,28.45
2019-04-24T12:27:04.361Z,28.35
2019-04-24T12:28:46.385Z,28.27
2019-04-24T12:29:09.266Z,28.32
2019-04-24T12:29:55.639Z,28.23
2019-04-24T12:30:46.432Z,28.21
2019-04-24T12:31:08.933Z,28.2
2019-04-24T12:31:58.980Z,28.13
2019-04-24T12:32:36.598Z,28.03
2019-04-24T12:33:18.164Z,28.05
2019-04-24T12:33:54.407Z,28.15
2019-04-24T12:34:46.141Z,28.18
2019-04-24T12:36:20.400Z,28.35
2019-04-24T12:36:57.078Z,28.45
2019-04-24T12:37:25.959Z,28.46
2019-04-24T12:38:12.094Z,28.5
2019-04-24T12:38:57.441Z,28.69
2019-04-24T12:39:41.449Z,28.69
2019-04-24T12:40:15.602Z,28.89
2019-04-24T12:40:53.409Z,28.97
2019-04-24T12:42:26.569Z,29.08
2019-04-24T12:42:59.249Z,29.17
2019-04-24T12:43:41.778Z,29.12
2019-04-24T12:44:20.825Z,29.18
2019-04-24T12:45:01.634Z,29.32
2019-04-24T12:46:44.837Z,29.33
2019-04-24T12:47:16.926Z,29.12
2019-04-24T12:48:26.885Z,29.17
2019-04-24T12:50:33.581Z,28.95
2019-04-24T12:51:47.467Z,28.67
2019-04-24T12:52:27.401Z,28.55
2019-04-24T12:54:05.439Z,28.35
2019-04-24T12:54:50.791Z,28.36
2019-04-24T12:55:10.046Z,28.27
2019-04-24T12:55:57.338Z,28.24
2019-04-24T12:59:34.259Z,28.08
2019-04-24T13:01:15.002Z,28.46
2019-04-24T13:02:35.992Z,28.58
2019-04-24T13:03:25.432Z,28.55
2019-04-24T13:04:11.175Z,28.42
2019-04-24T13:04:47.485Z,28.45
2019-04-24T13:06:25.767Z,28.25
2019-04-24T13:09:01.093Z,28.39
2019-04-24T13:10:11.263Z,28.52
2019-04-24T13:11:27.795Z,28.73
2019-04-24T13:12:14.325Z,28.8
2019-04-24T13:12:54.398Z,28.72
2019-04-24T13:13:38.238Z,28.61
2019-04-24T13:14:27.580Z,28.54
2019-04-24T13:15:09.742Z,28.55
2019-04-24T13:15:36.501Z,28.62
2019-04-24T13:16:19.450Z,28.67
2019-04-24T13:17:50.507Z,28.94
2019-04-24T13:18:14.831Z,29.05
2019-04-24T13:19:11.899Z,29.1
2019-04-24T13:19:55.704Z,29.21
2019-04-24T13:20:39.287Z,29.29
2019-04-24T13:21:27.338Z,29.25
2019-04-24T13:22:09.734Z,29.39
2019-04-24T13:22:52.658Z,29.33
2019-04-24T13:23:40.997Z,29.3
2019-04-24T13:24:23.068Z,29.37
2019-04-24T13:25:11.805Z,29.29
2019-04-24T13:26:00.745Z,29.23
2019-04-24T13:26:46.214Z,29.3
2019-04-24T13:28:19.956Z,29.17
2019-04-24T13:28:57.945Z,29.2
2019-04-24T13:30:54.112Z,29.15
2019-04-24T13:31:41.056Z,29.15
2019-04-24T13:32:24.320Z,29.11
2019-04-24T13:32:54.848Z,29
2019-04-24T13:33:32.084Z,28.85
2019-04-24T13:34:17.723Z,28.7
2019-04-24T13:35:00.285Z,28.6
2019-04-24T13:35:30.665Z,28.72
2019-04-24T13:36:28.272Z,28.61
2019-04-24T13:37:55.231Z,28.54
2019-04-24T13:38:26.753Z,28.55
2019-04-24T13:39:23.824Z,28.57
2019-04-24T13:40:29.083Z,28.58
2019-04-24T13:40:59.830Z,28.57
2019-04-24T13:42:28.169Z,28.45
2019-04-24T13:43:11.387Z,28.42
2019-04-24T13:44:24.295Z,28.23
2019-04-24T13:45:14.975Z,28.32
2019-04-24T13:45:59.507Z,28.33
2019-04-24T13:46:33.353Z,28.27
2019-04-24T13:47:16.067Z,28.27
2019-04-24T13:48:06.888Z,28.09
2019-04-24T13:48:39.517Z,28.17
2019-04-24T13:49:13.364Z,28.13
2019-04-24T13:50:02.688Z,28.18
2019-04-24T13:50:37.600Z,28.17
2019-04-24T13:51:39.446Z,28.39
2019-04-24T13:52:16.457Z,28.3
2019-04-24T13:54:08.637Z,27.99
2019-04-24T13:54:48.005Z,27.84
2019-04-24T13:55:25.132Z,27.87
2019-04-24T13:56:02.890Z,27.87
2019-04-24T13:56:54.302Z,27.84
2019-04-24T13:57:37.935Z,27.93
2019-04-24T13:58:21.667Z,27.9
2019-04-24T13:59:44.115Z,28.18
2019-04-24T14:00:20.238Z,28.25
2019-04-24T14:01:05.762Z,28.27
2019-04-24T14:01:41.280Z,28.33
2019-04-24T14:02:24.368Z,28.45
2019-04-24T14:03:22.816Z,28.45
2019-04-24T14:03:47.648Z,28.4
2019-04-24T14:04:15.363Z,28.38
2019-04-24T14:05:01.718Z,28.35
2019-04-24T14:06:05.918Z,28.35
2019-04-24T14:07:10.267Z,28.18
2019-04-24T14:07:57.981Z,28.01
2019-04-24T14:08:49.430Z,27.91
2019-04-24T14:09:13.882Z,27.93
2019-04-24T14:10:11.311Z,27.93
2019-04-24T14:10:43.380Z,27.88
2019-04-24T14:11:39.757Z,27.93
2019-04-24T14:13:12.474Z,27.9
2019-04-24T14:14:44.521Z,27.87
2019-04-24T14:15:11.427Z,27.87
2019-04-24T14:16:32.127Z,27.9
2019-04-24T14:17:14.857Z,27.87
2019-04-24T14:18:11.162Z,27.83
2019-04-24T14:18:43.166Z,27.65
2019-04-24T14:20:56.046Z,27.53
2019-04-24T14:21:18.302Z,27.55
2019-04-24T14:22:05.712Z,27.62
2019-04-24T14:22:53.633Z,27.58
2019-04-24T14:23:46.593Z,27.5
2019-04-24T14:24:12.152Z,27.42
2019-04-24T14:24:59.656Z,27.34
2019-04-24T14:26:09.525Z,27.23
2019-04-24T14:27:42.194Z,26.9